Terminal Aerodrome Forecast
Issued by NWS

Home | Current Version | Previous Version | Text Only | Print | Product List | Glossary On
Versions: 1 2 3 4 5 6 7 8 9 10 11 12 13 14 15 16 17 18 19 20
018
FTUS43 KSGF 251720
TAFJLN
TAF
KJLN 251720Z 2518/2618 16012G20KT P6SM SKC
     FM260000 16010KT P6SM SKC
     FM260300 16008KT P6SM FEW200 WS020/18040KT
     FM261100 18012G20KT P6SM SCT060 OVC100
     FM261400 18012G20KT P6SM OVC025=

USA.gov is the U.S. government's official web portal to all federal, state and local government web resources and services.